createdAt,value
2022-10-04T00:02:22.829Z,64.63
2022-10-04T00:04:57.249Z,64.77
2022-10-04T00:07:30.024Z,64.10
2022-10-04T00:10:00.930Z,64.78
2022-10-04T00:12:34.783Z,64.38
2022-10-04T00:15:06.243Z,64.25
2022-10-04T00:17:35.977Z,63.94
2022-10-04T00:20:28.863Z,64.05
2022-10-04T00:23:28.583Z,64.11
2022-10-04T00:25:58.761Z,63.84
2022-10-04T00:28:45.072Z,63.83
2022-10-04T00:31:19.023Z,63.97
2022-10-04T00:33:49.272Z,63.88
2022-10-04T00:36:40.170Z,63.77
2022-10-04T00:39:34.270Z,63.69
2022-10-04T00:42:13.208Z,63.68
2022-10-04T00:44:48.225Z,64.22
2022-10-04T00:47:25.305Z,64.77
2022-10-04T00:49:58.748Z,64.44
2022-10-04T00:52:30.159Z,64.34
2022-10-04T00:55:01.067Z,64.71
2022-10-04T00:57:32.652Z,64.30
2022-10-04T01:00:05.503Z,64.32
2022-10-04T01:02:39.678Z,64.77
2022-10-04T01:05:10.874Z,64.58
2022-10-04T01:07:44.006Z,64.77
2022-10-04T01:10:15.756Z,64.93
2022-10-04T01:12:50.896Z,64.50
2022-10-04T01:15:33.746Z,64.55
2022-10-04T01:18:14.557Z,64.81
2022-10-04T01:20:54.687Z,65.12
2022-10-04T01:23:40.601Z,64.80
2022-10-04T01:26:38.513Z,65.16
2022-10-04T01:29:10.649Z,64.90
2022-10-04T01:31:41.235Z,65.16
2022-10-04T01:34:09.937Z,65.47
2022-10-04T01:36:38.162Z,65.31
2022-10-04T01:39:08.707Z,65.65
2022-10-04T01:41:47.004Z,65.83
2022-10-04T01:44:24.752Z,66.07
2022-10-04T01:46:56.210Z,66.69
2022-10-04T01:49:30.416Z,66.62
2022-10-04T01:52:03.522Z,66.68
2022-10-04T01:54:35.769Z,66.81
2022-10-04T01:57:12.183Z,67.25
2022-10-04T01:59:45.377Z,67.34
2022-10-04T02:02:23.161Z,67.08
2022-10-04T02:04:55.091Z,67.19
2022-10-04T02:07:26.171Z,67.46
2022-10-04T02:09:59.712Z,67.16
2022-10-04T02:12:28.284Z,66.63
2022-10-04T02:14:57.847Z,66.76
2022-10-04T02:17:29.428Z,66.96
2022-10-04T02:19:58.528Z,66.96
2022-10-04T02:22:27.317Z,66.99
2022-10-04T02:24:59.426Z,67.16
2022-10-04T02:27:29.075Z,67.17
2022-10-04T02:30:01.980Z,67.25
2022-10-04T02:32:49.686Z,67.50
2022-10-04T02:35:19.156Z,67.22
2022-10-04T02:37:49.724Z,66.64
2022-10-04T02:40:23.064Z,66.75
2022-10-04T02:42:59.773Z,66.58
2022-10-04T02:45:34.191Z,66.18
2022-10-04T02:48:07.302Z,65.83
2022-10-04T02:50:40.995Z,65.50
2022-10-04T02:53:15.470Z,65.16
2022-10-04T02:55:45.251Z,65.47
2022-10-04T02:58:26.828Z,65.43
2022-10-04T03:00:58.998Z,65.39
2022-10-04T03:03:29.151Z,65.51
2022-10-04T03:06:02.430Z,65.70
2022-10-04T03:08:33.322Z,65.27
2022-10-04T03:11:05.896Z,65.41
2022-10-04T03:13:34.505Z,64.93
2022-10-04T03:16:02.651Z,65.14
2022-10-04T03:18:32.237Z,65.08
2022-10-04T03:21:02.677Z,64.95
2022-10-04T03:23:33.042Z,65.14
2022-10-04T03:26:10.909Z,65.53
2022-10-04T03:28:39.400Z,65.07
2022-10-04T03:31:07.595Z,65.66
2022-10-04T03:33:35.842Z,65.77
2022-10-04T03:36:04.864Z,65.86
2022-10-04T03:38:35.697Z,65.72
2022-10-04T03:41:05.245Z,65.55
2022-10-04T03:43:38.558Z,65.46
2022-10-04T03:46:09.398Z,65.06
2022-10-04T03:48:41.236Z,64.82
2022-10-04T03:51:15.064Z,65.44
2022-10-04T03:53:45.831Z,65.48
2022-10-04T03:56:19.998Z,65.14
2022-10-04T03:58:50.763Z,65.60
2022-10-04T04:01:35.470Z,65.47
2022-10-04T04:04:13.018Z,64.82
2022-10-04T04:06:45.737Z,65.17
2022-10-04T04:09:22.792Z,64.55
2022-10-04T04:11:55.526Z,64.95
2022-10-04T04:14:27.357Z,65.36
2022-10-04T04:17:16.363Z,64.81
2022-10-04T04:19:47.556Z,65.32
2022-10-04T04:22:19.063Z,65.40
2022-10-04T04:24:47.650Z,65.02
2022-10-04T04:27:18.892Z,65.13
2022-10-04T04:29:51.774Z,65.32
2022-10-04T04:32:23.166Z,65.62
2022-10-04T04:34:54.202Z,65.39
2022-10-04T04:37:22.133Z,65.34
2022-10-04T04:39:54.705Z,65.30
2022-10-04T04:42:27.563Z,64.93
2022-10-04T04:45:00.194Z,65.14
2022-10-04T04:47:35.018Z,64.94
2022-10-04T04:50:08.609Z,65.18
2022-10-04T04:52:37.236Z,65.18
2022-10-04T04:55:06.568Z,65.45
2022-10-04T04:57:35.099Z,65.39
2022-10-04T05:00:03.656Z,65.39
2022-10-04T05:02:35.165Z,65.51
2022-10-04T05:05:25.985Z,65.84
2022-10-04T05:08:14.172Z,66.44
2022-10-04T05:10:46.371Z,66.12
2022-10-04T05:13:16.127Z,65.71
2022-10-04T05:15:45.010Z,65.74
2022-10-04T05:18:30.497Z,65.73
2022-10-04T05:21:05.853Z,65.89
2022-10-04T05:23:34.989Z,66.04
2022-10-04T05:26:04.742Z,66.16
2022-10-04T05:28:34.400Z,65.78
2022-10-04T05:31:24.200Z,66.44
2022-10-04T05:33:57.132Z,66.69
2022-10-04T05:36:43.338Z,67.09
2022-10-04T05:39:20.079Z,67.25
2022-10-04T05:41:57.078Z,67.11
2022-10-04T05:44:27.666Z,66.86
2022-10-04T05:47:00.857Z,67.03
2022-10-04T05:49:34.867Z,66.75
2022-10-04T05:52:13.986Z,66.90
2022-10-04T05:54:41.940Z,66.91
2022-10-04T05:57:29.535Z,67.32
2022-10-04T06:00:17.447Z,67.32
2022-10-04T06:03:14.446Z,67.58
2022-10-04T06:05:49.948Z,67.46
2022-10-04T06:08:30.961Z,68.01
2022-10-04T06:11:20.686Z,68.05
2022-10-04T06:14:16.181Z,67.41
2022-10-04T06:16:59.759Z,67.42
2022-10-04T06:19:43.361Z,67.71
2022-10-04T06:22:17.560Z,67.74
2022-10-04T06:24:51.706Z,67.80
2022-10-04T06:27:26.630Z,67.88
2022-10-04T06:29:59.813Z,67.79
2022-10-04T06:32:52.993Z,67.91
2022-10-04T06:35:42.724Z,68.37
2022-10-04T06:38:44.449Z,68.54
2022-10-04T06:41:40.922Z,68.59
2022-10-04T06:44:25.265Z,68.14
2022-10-04T06:47:06.038Z,68.57
2022-10-04T06:49:40.330Z,68.82
2022-10-04T06:52:30.618Z,68.76
2022-10-04T06:55:34.544Z,68.88
2022-10-04T06:58:33.211Z,68.64
2022-10-04T07:01:08.012Z,68.44
2022-10-04T07:03:46.949Z,68.08
2022-10-04T07:06:24.447Z,67.82
2022-10-04T07:08:56.218Z,68.19
2022-10-04T07:11:28.446Z,68.58
2022-10-04T07:14:01.685Z,68.24
2022-10-04T07:16:36.348Z,67.93
2022-10-04T07:19:24.861Z,67.94
2022-10-04T07:22:00.277Z,67.44
2022-10-04T07:24:39.182Z,67.13
2022-10-04T07:27:11.269Z,67.06
2022-10-04T07:29:45.767Z,67.19
2022-10-04T07:32:21.330Z,66.65
2022-10-04T07:34:55.589Z,66.33
2022-10-04T07:37:26.692Z,66.04
2022-10-04T07:40:01.215Z,66.73
2022-10-04T07:42:32.652Z,67.04
2022-10-04T07:45:11.054Z,66.94
2022-10-04T07:47:39.457Z,66.82
2022-10-04T07:50:26.725Z,66.98
2022-10-04T07:53:08.576Z,67.07
2022-10-04T07:55:51.109Z,67.42
2022-10-04T07:58:27.529Z,67.02
2022-10-04T08:01:01.710Z,67.16
2022-10-04T08:03:56.166Z,67.35
2022-10-04T08:06:34.659Z,67.73
2022-10-04T08:09:24.175Z,68.08
2022-10-04T08:12:07.954Z,68.07
2022-10-04T08:14:52.459Z,67.98
2022-10-04T08:17:34.972Z,68.46
2022-10-04T08:20:22.191Z,68.41
2022-10-04T08:23:02.228Z,68.14
2022-10-04T08:25:42.539Z,68.43
2022-10-04T08:28:38.633Z,68.26
2022-10-04T08:31:21.410Z,68.53
2022-10-04T08:34:02.750Z,68.45
2022-10-04T08:36:50.042Z,68.86
2022-10-04T08:39:32.439Z,69.05
2022-10-04T08:42:41.895Z,68.42
2022-10-04T08:45:26.260Z,67.99
2022-10-04T08:48:24.696Z,67.95
2022-10-04T08:51:27.259Z,68.07
2022-10-04T08:54:46.616Z,68.13
2022-10-04T08:57:34.253Z,67.78
2022-10-04T09:00:17.846Z,67.55
2022-10-04T09:03:15.115Z,66.91
2022-10-04T09:05:54.849Z,66.64
2022-10-04T09:09:10.399Z,66.92
2022-10-04T09:11:51.111Z,66.06
2022-10-04T09:14:57.162Z,65.63
2022-10-04T09:17:37.119Z,65.41
2022-10-04T09:20:37.722Z,65.88
2022-10-04T09:23:20.749Z,66.01
2022-10-04T09:26:05.450Z,65.95
2022-10-04T09:29:05.817Z,66.12
2022-10-04T09:31:56.409Z,65.51
2022-10-04T09:34:37.476Z,64.64
2022-10-04T09:37:41.844Z,63.67
2022-10-04T09:40:47.068Z,63.51
2022-10-04T09:43:55.562Z,63.53
2022-10-04T09:46:52.106Z,62.44
2022-10-04T09:49:41.638Z,62.53
2022-10-04T09:52:25.309Z,61.83
2022-10-04T09:55:08.029Z,62.46
2022-10-04T09:58:01.902Z,62.67
2022-10-04T10:00:37.537Z,61.64
2022-10-04T10:03:48.095Z,60.46
2022-10-04T10:06:32.021Z,59.66
2022-10-04T10:09:12.104Z,60.29
2022-10-04T10:12:08.210Z,60.22
2022-10-04T10:15:01.896Z,60.61
2022-10-04T10:17:40.238Z,60.91
2022-10-04T10:20:33.378Z,61.17
2022-10-04T10:23:21.148Z,61.26
2022-10-04T10:26:05.932Z,60.94
2022-10-04T10:29:06.566Z,60.66
2022-10-04T10:31:53.513Z,60.70
2022-10-04T10:34:45.472Z,60.96
2022-10-04T10:37:18.874Z,60.88
2022-10-04T10:40:13.888Z,60.92
2022-10-04T10:42:59.877Z,61.31
2022-10-04T10:45:44.996Z,60.84
2022-10-04T10:48:17.973Z,60.03
2022-10-04T10:51:02.695Z,59.98
2022-10-04T10:53:57.113Z,59.31
2022-10-04T10:56:56.778Z,60.41
2022-10-04T11:00:00.598Z,59.68
2022-10-04T11:02:49.855Z,59.28
2022-10-04T11:05:51.362Z,59.66
2022-10-04T11:08:56.589Z,59.21
2022-10-04T11:11:45.272Z,58.64
2022-10-04T11:14:33.636Z,58.69
2022-10-04T11:17:43.257Z,58.16
2022-10-04T11:20:42.319Z,57.46
2022-10-04T11:23:44.733Z,58.18
2022-10-04T11:26:55.285Z,58.21
2022-10-04T11:29:41.453Z,57.74
2022-10-04T11:32:55.046Z,58.38
2022-10-04T11:36:00.338Z,57.11
2022-10-04T11:38:48.452Z,57.24
2022-10-04T11:41:24.007Z,56.21
2022-10-04T11:44:41.107Z,56.76
2022-10-04T11:47:24.869Z,56.67
2022-10-04T11:50:04.326Z,56.24
2022-10-04T11:53:13.893Z,56.62
2022-10-04T11:56:24.125Z,55.64
2022-10-04T11:59:27.653Z,55.83
2022-10-04T12:02:26.936Z,56.58
2022-10-04T12:05:26.826Z,55.83
2022-10-04T12:08:05.551Z,54.11
2022-10-04T12:10:38.653Z,53.96
2022-10-04T12:13:34.546Z,53.42
2022-10-04T12:16:33.877Z,54.10
2022-10-04T12:19:33.684Z,53.34
2022-10-04T12:22:24.835Z,53.96
2022-10-04T12:25:29.193Z,52.95
2022-10-04T12:28:15.973Z,53.29
2022-10-04T12:31:11.043Z,55.04
2022-10-04T12:33:46.505Z,54.57
2022-10-04T12:36:28.672Z,53.39
2022-10-04T12:39:16.669Z,52.37
2022-10-04T12:41:57.954Z,51.84
2022-10-04T12:44:41.016Z,51.61
2022-10-04T12:47:48.178Z,51.68
2022-10-04T12:50:27.211Z,51.58
2022-10-04T12:53:06.083Z,51.44
2022-10-04T12:55:53.981Z,51.51
2022-10-04T12:58:30.487Z,50.56
2022-10-04T13:01:07.011Z,50.10
2022-10-04T13:03:43.667Z,50.47
2022-10-04T13:06:21.451Z,51.31
2022-10-04T13:09:07.246Z,50.46
2022-10-04T13:12:03.327Z,50.10
2022-10-04T13:14:49.508Z,48.61
2022-10-04T13:17:36.167Z,48.49
2022-10-04T13:20:23.443Z,48.32
2022-10-04T13:22:59.356Z,49.03
2022-10-04T13:25:45.212Z,49.09
2022-10-04T13:28:24.518Z,48.52
2022-10-04T13:31:01.569Z,48.76
2022-10-04T13:33:40.343Z,49.70
2022-10-04T13:36:16.851Z,49.76
2022-10-04T13:39:19.324Z,49.93
2022-10-04T13:42:17.360Z,46.77
2022-10-04T13:45:10.439Z,47.76
2022-10-04T13:47:54.540Z,47.01
2022-10-04T13:50:38.829Z,46.26
2022-10-04T13:53:39.394Z,46.57
2022-10-04T13:56:40.185Z,46.66
2022-10-04T13:59:18.977Z,47.49
2022-10-04T14:02:26.098Z,47.25
2022-10-04T14:05:25.079Z,47.50
2022-10-04T14:08:14.897Z,48.06
2022-10-04T14:11:10.692Z,48.31
2022-10-04T14:14:10.202Z,48.15
2022-10-04T14:17:03.676Z,47.95
2022-10-04T14:20:04.291Z,47.29
2022-10-04T14:23:09.235Z,48.23
2022-10-04T14:26:08.696Z,46.84
2022-10-04T14:28:54.487Z,46.88
2022-10-04T14:31:47.889Z,47.09
2022-10-04T14:34:55.143Z,47.20
2022-10-04T14:38:09.554Z,45.95
2022-10-04T14:40:53.696Z,45.98
2022-10-04T14:43:51.501Z,46.78
2022-10-04T14:46:24.755Z,46.49
2022-10-04T14:49:07.925Z,46.88
2022-10-04T14:51:56.080Z,47.46
2022-10-04T14:54:37.497Z,47.58
2022-10-04T14:57:13.174Z,47.69
2022-10-04T14:59:55.555Z,47.07
2022-10-04T15:02:52.210Z,47.29
2022-10-04T15:05:57.864Z,47.38
2022-10-04T15:08:55.403Z,47.60
2022-10-04T15:11:41.262Z,47.38
2022-10-04T15:14:26.969Z,46.69
2022-10-04T15:16:58.878Z,46.67
2022-10-04T15:19:30.406Z,47.23
2022-10-04T15:22:07.748Z,47.37
2022-10-04T15:24:49.003Z,47.54
2022-10-04T15:27:53.353Z,47.42
2022-10-04T15:30:30.967Z,46.82
2022-10-04T15:33:17.794Z,47.53
2022-10-04T15:35:56.465Z,47.79
2022-10-04T15:38:32.730Z,47.40
2022-10-04T15:41:07.416Z,47.95
2022-10-04T15:43:42.490Z,48.17
2022-10-04T15:46:38.033Z,48.22
2022-10-04T15:49:26.589Z,48.62
2022-10-04T15:52:30.403Z,48.55
2022-10-04T15:55:26.120Z,48.36
2022-10-04T15:58:26.010Z,48.50
2022-10-04T16:01:13.325Z,48.16
2022-10-04T16:03:48.760Z,49.15
2022-10-04T16:06:23.965Z,49.28
2022-10-04T16:09:16.117Z,49.02
2022-10-04T16:12:20.079Z,48.71
2022-10-04T16:14:56.584Z,48.57
2022-10-04T16:17:45.613Z,49.67
2022-10-04T16:20:40.747Z,49.27
2022-10-04T16:23:33.071Z,48.86
2022-10-04T16:26:04.988Z,49.88
2022-10-04T16:29:13.430Z,49.31
2022-10-04T16:31:56.568Z,49.75
2022-10-04T16:34:35.287Z,49.11
2022-10-04T16:37:17.398Z,49.71
2022-10-04T16:40:00.443Z,49.28
2022-10-04T16:42:35.979Z,49.59
2022-10-04T16:45:33.945Z,49.15
2022-10-04T16:48:12.926Z,49.08
2022-10-04T16:51:01.688Z,49.71
2022-10-04T16:53:42.102Z,49.88
2022-10-04T16:56:16.670Z,49.50
2022-10-04T16:58:55.907Z,50.52
2022-10-04T17:02:07.935Z,50.10
2022-10-04T17:04:55.479Z,50.68
2022-10-04T17:07:36.818Z,50.49
2022-10-04T17:10:20.036Z,50.16
2022-10-04T17:12:56.525Z,50.71
2022-10-04T17:15:49.125Z,50.93
2022-10-04T17:18:27.820Z,50.73
2022-10-04T17:21:00.155Z,51.24
2022-10-04T17:23:55.540Z,51.81
2022-10-04T17:26:39.533Z,51.76
2022-10-04T17:29:17.644Z,51.67
2022-10-04T17:31:52.452Z,52.13
2022-10-04T17:34:33.433Z,52.66
2022-10-04T17:37:17.989Z,52.73
2022-10-04T17:39:50.089Z,53.16
2022-10-04T17:42:30.417Z,53.26
2022-10-04T17:45:30.644Z,53.52
2022-10-04T17:48:21.424Z,53.50
2022-10-04T17:51:17.172Z,53.29
2022-10-04T17:54:09.493Z,54.45
2022-10-04T17:56:43.912Z,54.30
2022-10-04T17:59:17.318Z,54.03
2022-10-04T18:01:48.665Z,53.72
2022-10-04T18:04:20.541Z,54.56
2022-10-04T18:06:55.909Z,55.08
2022-10-04T18:09:31.921Z,55.46
2022-10-04T18:12:03.007Z,54.84
2022-10-04T18:14:47.362Z,54.84
2022-10-04T18:17:27.757Z,55.41
2022-10-04T18:20:08.631Z,55.08
2022-10-04T18:22:46.505Z,55.20
2022-10-04T18:25:19.580Z,55.56
2022-10-04T18:27:51.501Z,55.45
2022-10-04T18:30:22.475Z,55.96
2022-10-04T18:32:52.506Z,56.29
2022-10-04T18:35:26.834Z,56.05
2022-10-04T18:37:57.156Z,56.12
2022-10-04T18:40:28.611Z,55.97
2022-10-04T18:43:00.269Z,56.54
2022-10-04T18:45:29.977Z,56.38
2022-10-04T18:48:00.743Z,56.01
2022-10-04T18:50:35.964Z,56.70
2022-10-04T18:53:19.803Z,56.70
2022-10-04T18:55:58.686Z,56.62
2022-10-04T18:59:18.187Z,56.23
2022-10-04T19:02:02.915Z,57.03
2022-10-04T19:04:42.263Z,57.04
2022-10-04T19:07:13.070Z,56.90
2022-10-04T19:10:00.164Z,57.32
2022-10-04T19:12:36.040Z,57.12
2022-10-04T19:15:16.442Z,57.83
2022-10-04T19:17:52.698Z,57.55
2022-10-04T19:20:29.054Z,57.96
2022-10-04T19:23:12.289Z,57.27
2022-10-04T19:26:09.791Z,57.54
2022-10-04T19:28:38.564Z,57.55
2022-10-04T19:31:18.641Z,57.32
2022-10-04T19:33:51.153Z,57.34
2022-10-04T19:36:42.266Z,58.13
2022-10-04T19:39:24.937Z,58.20
2022-10-04T19:41:59.511Z,58.76
2022-10-04T19:44:40.129Z,59.18
2022-10-04T19:47:20.482Z,58.93
2022-10-04T19:49:55.044Z,58.65
2022-10-04T19:52:33.772Z,58.35
2022-10-04T19:55:17.572Z,58.19
2022-10-04T19:57:48.116Z,58.37
2022-10-04T20:00:20.217Z,58.50
2022-10-04T20:02:49.095Z,58.74
2022-10-04T20:05:25.013Z,59.05
2022-10-04T20:07:57.521Z,59.29
2022-10-04T20:10:34.913Z,59.11
2022-10-04T20:13:24.156Z,59.03
2022-10-04T20:16:00.207Z,59.38
2022-10-04T20:19:05.160Z,59.36
2022-10-04T20:21:34.010Z,59.11
2022-10-04T20:24:02.541Z,59.28
2022-10-04T20:26:54.776Z,59.31
2022-10-04T20:30:01.851Z,59.66
2022-10-04T20:33:00.028Z,59.51
2022-10-04T20:36:05.729Z,59.52
2022-10-04T20:38:55.113Z,60.21
2022-10-04T20:42:20.073Z,59.64
2022-10-04T20:44:54.577Z,59.87
2022-10-04T20:47:37.262Z,60.12
2022-10-04T20:50:15.441Z,59.97
2022-10-04T20:52:48.892Z,59.65
2022-10-04T20:55:18.968Z,59.16
2022-10-04T20:57:46.968Z,59.96
2022-10-04T21:00:20.184Z,60.40
2022-10-04T21:02:48.339Z,60.43
2022-10-04T21:05:24.890Z,60.27
2022-10-04T21:08:14.404Z,60.50
2022-10-04T21:11:04.102Z,60.60
2022-10-04T21:13:57.431Z,60.75
2022-10-04T21:16:40.308Z,60.29
2022-10-04T21:19:51.353Z,60.60
2022-10-04T21:22:39.810Z,61.05
2022-10-04T21:25:32.971Z,61.12
2022-10-04T21:28:23.722Z,61.30
2022-10-04T21:30:51.649Z,60.93
2022-10-04T21:33:19.511Z,60.97
2022-10-04T21:35:50.804Z,61.08
2022-10-04T21:38:20.103Z,61.10
2022-10-04T21:40:47.993Z,61.47
2022-10-04T21:43:15.838Z,61.53
2022-10-04T21:45:43.722Z,61.09
2022-10-04T21:48:11.701Z,61.25
2022-10-04T21:50:39.647Z,61.73
2022-10-04T21:53:07.935Z,61.84
2022-10-04T21:55:37.222Z,61.83
2022-10-04T21:58:05.243Z,62.50
2022-10-04T22:00:34.150Z,61.59
2022-10-04T22:03:02.080Z,61.74
2022-10-04T22:05:30.286Z,62.20
2022-10-04T22:07:59.561Z,62.35
2022-10-04T22:10:27.640Z,61.72
2022-10-04T22:12:57.234Z,62.23
2022-10-04T22:15:26.659Z,62.69
2022-10-04T22:17:55.010Z,62.62
2022-10-04T22:20:23.453Z,62.64
2022-10-04T22:22:51.480Z,62.82
2022-10-04T22:25:21.290Z,62.74
2022-10-04T22:27:49.321Z,63.03
2022-10-04T22:30:25.379Z,63.66
2022-10-04T22:32:56.111Z,63.47
2022-10-04T22:35:24.166Z,63.77
2022-10-04T22:37:52.532Z,64.09
2022-10-04T22:40:22.265Z,63.92
2022-10-04T22:42:52.276Z,63.74
2022-10-04T22:45:24.761Z,63.65
2022-10-04T22:47:53.188Z,64.83
2022-10-04T22:50:31.564Z,64.57
2022-10-04T22:53:04.312Z,64.32
2022-10-04T22:55:32.612Z,64.34
2022-10-04T22:58:02.404Z,63.63
2022-10-04T23:00:31.700Z,64.13
2022-10-04T23:02:59.605Z,63.92
2022-10-04T23:05:28.911Z,64.00
2022-10-04T23:07:56.987Z,64.55
2022-10-04T23:10:24.928Z,64.27
2022-10-04T23:12:52.775Z,64.10
2022-10-04T23:15:21.712Z,64.51
2022-10-04T23:17:55.918Z,64.47
2022-10-04T23:20:24.193Z,65.12
2022-10-04T23:22:54.886Z,64.88
2022-10-04T23:25:27.258Z,64.98
2022-10-04T23:27:58.043Z,64.45
2022-10-04T23:30:26.314Z,64.48
2022-10-04T23:33:01.051Z,65.17
2022-10-04T23:35:32.689Z,65.43
2022-10-04T23:38:03.617Z,64.64
2022-10-04T23:40:31.787Z,64.91
2022-10-04T23:43:03.704Z,65.37
2022-10-04T23:45:32.153Z,65.44
2022-10-04T23:48:02.016Z,65.01
2022-10-04T23:50:32.704Z,65.64
2022-10-04T23:53:04.621Z,65.20
2022-10-04T23:55:35.970Z,65.75
2022-10-04T23:58:14.046Z,66.38
